METAR Data
IDs: Format: Raw Decoded Include TAF

Data at: 2019 UTC 01 Oct 2022

KGOO 012015Z AUTO 26007KT 10SM CLR 28/07 A2991 RMK A01
KGOO 011955Z AUTO VRB05KT 10SM CLR 27/07 A2991 RMK A01
KGOO 011930Z AUTO 26007KT 10SM CLR 27/06 A2991 RMK A01
KGOO 011915Z AUTO 00000KT 10SM CLR 27/05 A2992 RMK A01
KGOO 011855Z AUTO VRB03KT 10SM CLR 28/06 A2992 RMK A01
KGOO 011835Z AUTO 00000KT 10SM CLR 26/05 A2992 RMK A01
KGOO 011815Z AUTO 00000KT 10SM CLR 26/06 A2992 RMK A01
KGOO 011755Z AUTO 23003KT 10SM CLR 25/05 A2992 RMK A01
KGOO 011730Z AUTO 00000KT 10SM CLR 25/05 A2992 RMK A01
KGOO 011715Z AUTO 00000KT 10SM CLR 25/05 A2992 RMK A01
KGOO 011655Z AUTO 00000KT 10SM CLR 24/06 A2992 RMK A01
KGOO 011635Z AUTO 00000KT 10SM CLR 24/06 A2992 RMK A01
KGOO 011615Z AUTO 00000KT 10SM CLR 23/05 A2991 RMK A01
KGOO 011555Z AUTO 00000KT 10SM CLR 22/05 A2991 RMK A01
KGOO 011535Z AUTO 11004KT 10SM CLR 21/04 A2991 RMK A01
KGOO 011515Z AUTO 00000KT 10SM CLR 20/03 A2991 RMK A01
KGOO 011455Z AUTO 00000KT 10SM CLR 19/03 A2991 RMK A01
KGOO 011435Z AUTO 11004KT 10SM CLR 19/02 A2990 RMK A01
KGOO 011415Z AUTO 12004KT 10SM CLR 19/02 A2990 RMK A01
KGOO 011355Z AUTO 13004KT 10SM CLR 19/02 A2990 RMK A01
KGOO 011335Z AUTO 12005KT 10SM CLR 19/02 A2990 RMK A01
KGOO 011315Z AUTO 12004KT 10SM CLR 19/02 A2990 RMK A01
KGOO 011255Z AUTO 00000KT 10SM CLR 18/02 A2990 RMK A01
KGOO 011230Z AUTO 00000KT 10SM CLR 18/02 A2990 RMK A01
KGOO 011215Z AUTO 13003KT 10SM CLR 18/02 A2989 RMK A01
KGOO 011155Z AUTO 12004KT 10SM CLR 19/02 A2989 RMK A01
KGOO 011135Z AUTO VRB05KT 10SM CLR 19/02 A2989 RMK A01
KGOO 011115Z AUTO 12005KT 10SM FEW042 19/01 A2989 RMK A01
KGOO 011055Z AUTO 14003KT 10SM CLR 17/02 A2989 RMK A01
KGOO 011035Z AUTO 14004KT 10SM FEW042 18/02 A2988 RMK A01
KGOO 011015Z AUTO 12005KT 10SM FEW046 20/01 A2989 RMK A01
KGOO 010955Z AUTO 12005KT 10SM CLR 19/01 A2989 RMK A01
KGOO 010935Z AUTO 14004KT 10SM CLR 18/03 A2989 RMK A01
KGOO 010915Z AUTO 12005KT 10SM FEW050 19/02 A2988 RMK A01
KGOO 010855Z AUTO 00000KT 10SM FEW040 SCT048 19/02 A2988 RMK A01
KGOO 010835Z AUTO 00000KT 10SM FEW041 SCT049 19/02 A2988 RMK A01
KGOO 010815Z AUTO 13003KT 10SM SCT047 20/02 A2988 RMK A01
KGOO 010750Z AUTO 00000KT 10SM CLR 20/04 A2988 RMK A01
KGOO 010735Z AUTO 00000KT 10SM CLR 20/06 A2989 RMK A01
KGOO 010715Z AUTO 00000KT 10SM CLR 20/07 A2989 RMK A01
KGOO 010655Z AUTO 00000KT 10SM CLR 20/07 A2989 RMK A01
KGOO 010630Z AUTO 00000KT 10SM CLR 20/07 A2988 RMK A01
KGOO 010615Z AUTO 00000KT 10SM CLR 20/07 A2988 RMK A01
KGOO 010555Z AUTO 00000KT 10SM CLR 20/07 A2989 RMK A01
KGOO 010535Z AUTO 00000KT 10SM CLR 20/07 A2989 RMK A01
KGOO 010515Z AUTO 03004KT 10SM CLR 21/06 A2989 RMK A01
KGOO 010455Z AUTO 00000KT 10SM CLR 20/06 A2989 RMK A01
KGOO 010435Z AUTO 00000KT 10SM CLR 21/06 A2989 RMK A01
KGOO 010415Z AUTO 02003KT 10SM CLR 20/06 A2989 RMK A01
KGOO 010355Z AUTO 00000KT 10SM CLR 20/06 A2989 RMK A01
KGOO 010335Z AUTO 00000KT 10SM CLR 21/06 A2989 RMK A01
KGOO 010315Z AUTO 36004KT 10SM CLR 21/06 A2989 RMK A01
KGOO 010250Z AUTO 00000KT 10SM CLR 21/06 A2989 RMK A01
KGOO 010235Z AUTO 00000KT 10SM CLR 21/07 A2989 RMK A01
KGOO 010215Z AUTO 34003KT 10SM CLR 22/07 A2989 RMK A01
KGOO 010155Z AUTO 00000KT 10SM CLR 23/07 A2989 RMK A01
KGOO 010135Z AUTO 00000KT 10SM CLR 24/07 A2990 RMK A01
KGOO 010115Z AUTO 30003KT 10SM CLR 24/07 A2990 RMK A01
KGOO 010050Z AUTO 34003KT 10SM CLR 25/07 A2990 RMK A01
KGOO 010035Z AUTO 29004KT 10SM CLR 25/06 A2990 RMK A01
KGOO 010015Z AUTO 28005KT 10SM CLR 26/06 A2990 RMK A01
KGOO 302355Z AUTO 29005KT 10SM CLR 26/06 A2990 RMK A01
KGOO 302330Z AUTO VRB04KT 10SM CLR 27/07 A2990 RMK A01
KGOO 302315Z AUTO 00000KT 10SM CLR 27/06 A2990 RMK A01
KGOO 302250Z AUTO VRB05KT 10SM CLR 27/07 A2991 RMK A01
KGOO 302235Z AUTO VRB06KT 10SM CLR 27/07 A2991 RMK A01
KGOO 302215Z AUTO 22004KT 10SM CLR 27/07 A2991 RMK A01
KGOO 302155Z AUTO 28007KT 230V310 10SM CLR 27/08 A2992 RMK A01
KGOO 302135Z AUTO VRB03G10KT 10SM CLR 27/08 A2992 RMK A01
KGOO 302110Z AUTO 30009KT 10SM CLR 27/08 A2993 RMK A01
KGOO 302055Z AUTO 28010KT 10SM CLR 27/08 A2993 RMK A01
KGOO 302035Z AUTO 27007G13KT 10SM CLR 28/08 A2994 RMK A01
KGOO 302015Z AUTO 22004KT 10SM CLR 28/07 A2995 RMK A01
KGOO 301955Z AUTO 24005KT 10SM CLR 28/06 A2995 RMK A01
KGOO 301935Z AUTO 00000KT 10SM CLR 27/05 A2996 RMK A01
KGOO 301910Z AUTO VRB05KT 10SM CLR 28/06 A2997 RMK A01
KGOO 301850Z AUTO VRB03KT 10SM CLR 27/06 A2997 RMK A01
KGOO 301835Z AUTO 15006KT 10SM CLR 27/05 A2997 RMK A01
KGOO 301815Z AUTO 00000KT 10SM CLR 27/06 A2998 RMK A01
KGOO 301755Z AUTO 16005KT 10SM CLR 26/06 A2998 RMK A01
KGOO 301730Z AUTO 00000KT 10SM CLR 25/06 A2998 RMK A01
KGOO 301715Z AUTO 13003KT 10SM CLR 25/05 A2998 RMK A01
KGOO 301655Z AUTO 00000KT 10SM CLR 25/06 A2999 RMK A01
KGOO 301635Z AUTO VRB03KT 10SM CLR 24/06 A2999 RMK A01
KGOO 301615Z AUTO 12004KT 10SM CLR 24/05 A2998 RMK A01
KGOO 301550Z AUTO 00000KT 10SM CLR 23/05 A2998 RMK A01
KGOO 301535Z AUTO 00000KT 10SM CLR 22/05 A2998 RMK A01
KGOO 301515Z AUTO 00000KT 10SM CLR 21/05 A2998 RMK A01
KGOO 301455Z AUTO 10004KT 10SM CLR 20/03 A2998 RMK A01
KGOO 301435Z AUTO 11004KT 10SM CLR 19/03 A2998 RMK A01
KGOO 301415Z AUTO 10005KT 10SM CLR 19/03 A2997 RMK A01
KGOO 301355Z AUTO 10005KT 10SM CLR 19/03 A2997 RMK A01
KGOO 301335Z AUTO 09006KT 10SM CLR 18/03 A2997 RMK A01
KGOO 301315Z AUTO 10005KT 10SM CLR 18/04 A2997 RMK A01
KGOO 301250Z AUTO 00000KT 10SM CLR 18/06 A2997 RMK A01
KGOO 301230Z AUTO 00000KT 10SM CLR 18/06 A2997 RMK A01
KGOO 301215Z AUTO 00000KT 10SM CLR 18/07 A2997 RMK A01
KGOO 301150Z AUTO 00000KT 10SM CLR 18/07 A2997 RMK A01
KGOO 301135Z AUTO 00000KT 10SM CLR 17/07 A2997 RMK A01
KGOO 301110Z AUTO 00000KT 10SM CLR 17/07 A2997 RMK A01
KGOO 301050Z AUTO 00000KT 10SM CLR 18/07 A2998 RMK A01
KGOO 301030Z AUTO 00000KT 10SM CLR 18/07 A2998 RMK A01
KGOO 301015Z AUTO 00000KT 10SM CLR 18/07 A2998 RMK A01
KGOO 300950Z AUTO 00000KT 10SM CLR 18/07 A2999 RMK A01
KGOO 300935Z AUTO 00000KT 10SM CLR 18/07 A3000 RMK A01
KGOO 300915Z AUTO 00000KT 10SM CLR 18/07 A3000 RMK A01
KGOO 300855Z AUTO 00000KT 10SM CLR 18/08 A3000 RMK A01
KGOO 300835Z AUTO 00000KT 10SM CLR 18/07 A3000 RMK A01